createdAt,value
2022-09-25T00:01:14.432Z,2.97
2022-09-25T00:03:41.823Z,3.22
2022-09-25T00:06:12.117Z,4.45
2022-09-25T00:08:40.195Z,2.97
2022-09-25T00:11:09.917Z,3.25
2022-09-25T00:13:37.378Z,4.00
2022-09-25T00:16:06.126Z,3.63
2022-09-25T00:18:51.782Z,4.20
2022-09-25T00:21:19.374Z,3.95
2022-09-25T00:23:46.989Z,3.80
2022-09-25T00:26:16.262Z,3.15
2022-09-25T00:28:43.987Z,3.80
2022-09-25T00:31:23.373Z,3.10
2022-09-25T00:33:51.832Z,3.42
2022-09-25T00:36:19.518Z,3.35
2022-09-25T00:38:49.002Z,3.10
2022-09-25T00:41:18.066Z,3.20
2022-09-25T00:43:51.666Z,3.17
2022-09-25T00:46:31.171Z,3.40
2022-09-25T00:49:07.382Z,3.47
2022-09-25T00:51:54.447Z,3.30
2022-09-25T00:54:25.540Z,3.47
2022-09-25T00:56:54.275Z,5.13
2022-09-25T00:59:25.499Z,4.15
2022-09-25T01:01:52.888Z,4.10
2022-09-25T01:04:21.040Z,4.38
2022-09-25T01:06:49.470Z,4.97
2022-09-25T01:09:17.342Z,4.60
2022-09-25T01:11:45.226Z,4.00
2022-09-25T01:14:16.900Z,4.38
2022-09-25T01:16:53.409Z,4.10
2022-09-25T01:19:33.419Z,4.97
2022-09-25T01:22:12.959Z,5.07
2022-09-25T01:24:41.092Z,5.65
2022-09-25T01:27:32.081Z,4.53
2022-09-25T01:30:06.444Z,4.57
2022-09-25T01:32:38.896Z,5.43
2022-09-25T01:35:37.666Z,5.40
2022-09-25T01:38:15.363Z,5.63
2022-09-25T01:40:51.104Z,5.60
2022-09-25T01:43:36.264Z,6.30
2022-09-25T01:46:13.376Z,5.93
2022-09-25T01:48:43.193Z,4.75
2022-09-25T01:51:32.284Z,5.30
2022-09-25T01:54:04.372Z,4.88
2022-09-25T01:56:39.880Z,5.40
2022-09-25T01:59:16.793Z,5.07
2022-09-25T02:01:45.129Z,5.00
2022-09-25T02:04:16.426Z,5.97
2022-09-25T02:06:46.724Z,5.88
2022-09-25T02:09:19.164Z,6.00
2022-09-25T02:11:50.698Z,6.07
2022-09-25T02:14:23.692Z,6.28
2022-09-25T02:16:53.706Z,5.93
2022-09-25T02:19:39.905Z,5.35
2022-09-25T02:22:20.510Z,6.22
2022-09-25T02:25:19.358Z,5.63
2022-09-25T02:27:46.551Z,5.03
2022-09-25T02:30:13.870Z,5.65
2022-09-25T02:32:41.177Z,5.10
2022-09-25T02:35:08.973Z,5.25
2022-09-25T02:37:37.054Z,5.70
2022-09-25T02:40:04.857Z,5.30
2022-09-25T02:42:45.161Z,4.88
2022-09-25T02:45:16.823Z,4.10
2022-09-25T02:47:52.773Z,5.15
2022-09-25T02:50:54.629Z,4.95
2022-09-25T02:53:37.620Z,5.25
2022-09-25T02:56:25.618Z,4.53
2022-09-25T02:58:55.148Z,5.03
2022-09-25T03:01:25.042Z,5.70
2022-09-25T03:03:55.770Z,5.90
2022-09-25T03:06:23.292Z,5.20
2022-09-25T03:08:54.391Z,5.40
2022-09-25T03:11:22.776Z,5.55
2022-09-25T03:14:00.533Z,5.10
2022-09-25T03:16:47.606Z,5.15
2022-09-25T03:19:15.996Z,6.05
2022-09-25T03:21:43.438Z,5.57
2022-09-25T03:24:10.768Z,5.63
2022-09-25T03:26:38.140Z,4.70
2022-09-25T03:29:06.110Z,5.68
2022-09-25T03:31:34.199Z,5.93
2022-09-25T03:34:01.568Z,6.00
2022-09-25T03:36:31.794Z,5.95
2022-09-25T03:38:59.457Z,5.90
2022-09-25T03:41:30.692Z,6.47
2022-09-25T03:43:59.192Z,6.70
2022-09-25T03:46:28.501Z,6.85
2022-09-25T03:48:56.825Z,7.27
2022-09-25T03:51:25.962Z,6.50
2022-09-25T03:53:54.084Z,6.95
2022-09-25T03:56:24.257Z,6.55
2022-09-25T03:58:54.497Z,6.43
2022-09-25T04:01:23.302Z,6.43
2022-09-25T04:03:51.351Z,6.88
2022-09-25T04:06:24.346Z,6.57
2022-09-25T04:08:53.106Z,6.28
2022-09-25T04:11:21.525Z,6.22
2022-09-25T04:13:48.783Z,6.40
2022-09-25T04:16:17.112Z,6.10
2022-09-25T04:18:44.398Z,5.90
2022-09-25T04:21:13.045Z,6.05
2022-09-25T04:23:40.935Z,5.05
2022-09-25T04:26:11.416Z,5.38
2022-09-25T04:28:38.650Z,6.00
2022-09-25T04:31:06.067Z,5.75
2022-09-25T04:33:48.506Z,5.72
2022-09-25T04:36:18.254Z,6.72
2022-09-25T04:38:45.887Z,5.82
2022-09-25T04:41:13.059Z,6.68
2022-09-25T04:43:42.792Z,6.50
2022-09-25T04:46:15.443Z,7.30
2022-09-25T04:48:46.454Z,7.25
2022-09-25T04:51:13.838Z,8.02
2022-09-25T04:53:41.503Z,8.38
2022-09-25T04:56:14.614Z,8.95
2022-09-25T04:58:50.301Z,10.27
2022-09-25T05:01:19.613Z,9.55
2022-09-25T05:03:53.344Z,9.63
2022-09-25T05:06:21.711Z,10.63
2022-09-25T05:08:52.554Z,9.80
2022-09-25T05:11:19.768Z,10.40
2022-09-25T05:13:54.114Z,10.52
2022-09-25T05:16:21.653Z,10.95
2022-09-25T05:18:48.949Z,10.23
2022-09-25T05:21:16.225Z,10.85
2022-09-25T05:23:43.498Z,11.05
2022-09-25T05:26:11.144Z,11.43
2022-09-25T05:28:38.463Z,10.75
2022-09-25T05:31:06.363Z,11.38
2022-09-25T05:33:35.199Z,9.63
2022-09-25T05:36:03.709Z,9.45
2022-09-25T05:38:35.607Z,10.35
2022-09-25T05:41:10.269Z,9.70
2022-09-25T05:43:42.879Z,10.20
2022-09-25T05:46:11.255Z,9.02
2022-09-25T05:48:38.500Z,10.40
2022-09-25T05:51:06.169Z,10.10
2022-09-25T05:53:33.531Z,8.75
2022-09-25T05:56:02.662Z,9.20
2022-09-25T05:58:31.178Z,9.70
2022-09-25T06:01:03.708Z,10.07
2022-09-25T06:03:31.476Z,9.45
2022-09-25T06:05:59.706Z,9.85
2022-09-25T06:08:27.541Z,9.40
2022-09-25T06:10:55.148Z,9.23
2022-09-25T06:13:23.364Z,9.50
2022-09-25T06:15:52.443Z,9.32
2022-09-25T06:18:21.386Z,9.48
2022-09-25T06:20:49.419Z,8.45
2022-09-25T06:23:17.759Z,8.75
2022-09-25T06:25:45.310Z,8.27
2022-09-25T06:28:12.688Z,8.00
2022-09-25T06:30:39.928Z,7.55
2022-09-25T06:33:11.595Z,8.25
2022-09-25T06:35:46.176Z,7.30
2022-09-25T06:38:15.912Z,7.35
2022-09-25T06:40:43.414Z,6.65
2022-09-25T06:43:15.473Z,7.40
2022-09-25T06:45:43.271Z,6.75
2022-09-25T06:48:13.194Z,6.90
2022-09-25T06:53:21.704Z,6.80
2022-09-25T06:55:49.768Z,6.63
2022-09-25T06:58:22.683Z,7.00
2022-09-25T07:00:51.733Z,6.40
2022-09-25T07:03:38.049Z,6.25
2022-09-25T07:06:07.944Z,6.05
2022-09-25T07:08:35.281Z,6.13
2022-09-25T07:11:03.061Z,6.55
2022-09-25T07:13:33.661Z,5.88
2022-09-25T07:16:06.111Z,5.68
2022-09-25T07:18:33.983Z,5.50
2022-09-25T07:21:03.032Z,5.55
2022-09-25T07:23:31.329Z,5.00
2022-09-25T07:26:04.542Z,5.30
2022-09-25T07:28:31.694Z,6.85
2022-09-25T07:30:58.958Z,5.75
2022-09-25T07:33:26.589Z,10.30
2022-09-25T07:35:53.776Z,7.15
2022-09-25T07:38:21.647Z,9.40
2022-09-25T07:40:50.121Z,5.47
2022-09-25T07:43:17.457Z,4.03
2022-09-25T07:45:53.617Z,5.30
2022-09-25T07:48:23.979Z,4.28
2022-09-25T07:53:19.033Z,4.55
2022-09-25T07:55:46.952Z,4.55
2022-09-25T07:58:14.968Z,4.22
2022-09-25T08:00:42.222Z,4.10
2022-09-25T08:03:11.365Z,4.03
2022-09-25T08:05:38.676Z,3.50
2022-09-25T08:08:05.926Z,4.05
2022-09-25T08:10:33.210Z,4.55
2022-09-25T08:13:00.754Z,4.15
2022-09-25T08:15:28.049Z,3.80
2022-09-25T08:17:55.399Z,3.85
2022-09-25T08:20:22.654Z,3.78
2022-09-25T08:22:54.013Z,4.10
2022-09-25T08:25:21.331Z,3.42
2022-09-25T08:27:48.524Z,3.72
2022-09-25T08:30:17.613Z,3.60
2022-09-25T08:32:45.138Z,2.78
2022-09-25T08:35:12.285Z,2.97
2022-09-25T08:37:42.592Z,3.35
2022-09-25T08:40:18.381Z,3.30
2022-09-25T08:42:48.829Z,3.00
2022-09-25T08:45:48.550Z,3.17
2022-09-25T08:48:40.534Z,2.40
2022-09-25T08:51:08.009Z,2.40
2022-09-25T08:53:35.691Z,2.05
2022-09-25T08:56:20.324Z,2.40
2022-09-25T08:58:52.249Z,2.13
2022-09-25T09:01:22.782Z,2.58
2022-09-25T09:04:07.195Z,1.75
2022-09-25T09:06:34.543Z,2.03
2022-09-25T09:09:06.882Z,1.95
2022-09-25T09:11:38.543Z,2.40
2022-09-25T09:14:07.963Z,1.92
2022-09-25T09:16:44.176Z,2.42
2022-09-25T09:19:12.027Z,2.08
2022-09-25T09:22:01.900Z,1.48
2022-09-25T09:24:35.351Z,2.22
2022-09-25T09:27:20.682Z,2.20
2022-09-25T09:30:11.144Z,1.85
2022-09-25T09:33:10.735Z,2.13
2022-09-25T09:35:53.633Z,2.03
2022-09-25T09:38:29.987Z,1.98
2022-09-25T09:41:18.704Z,1.50
2022-09-25T09:44:25.452Z,3.20
2022-09-25T09:47:14.771Z,1.73
2022-09-25T09:50:20.678Z,1.30
2022-09-25T09:52:51.703Z,1.45
2022-09-25T09:55:41.996Z,1.30
2022-09-25T09:58:43.352Z,1.77
2022-09-25T10:01:36.731Z,1.17
2022-09-25T10:04:10.965Z,1.00
2022-09-25T10:06:43.384Z,1.50
2022-09-25T10:09:16.119Z,1.27
2022-09-25T10:11:45.604Z,1.10
2022-09-25T10:14:20.929Z,1.30
2022-09-25T10:16:50.584Z,1.05
2022-09-25T10:19:22.201Z,1.67
2022-09-25T10:21:53.426Z,1.23
2022-09-25T10:24:53.052Z,1.17
2022-09-25T10:27:21.609Z,1.42
2022-09-25T10:30:03.819Z,1.38
2022-09-25T10:32:33.853Z,1.38
2022-09-25T10:35:01.169Z,1.20
2022-09-25T10:37:36.244Z,1.10
2022-09-25T10:40:06.863Z,1.30
2022-09-25T10:42:43.301Z,1.20
2022-09-25T10:45:37.005Z,1.67
2022-09-25T10:48:52.461Z,1.83
2022-09-25T10:51:21.447Z,1.38
2022-09-25T10:54:12.972Z,1.60
2022-09-25T10:56:40.765Z,1.50
2022-09-25T10:59:17.746Z,1.10
2022-09-25T11:01:45.993Z,1.77
2022-09-25T11:04:22.673Z,1.13
2022-09-25T11:06:53.226Z,1.23
2022-09-25T11:09:22.895Z,1.55
2022-09-25T11:11:52.275Z,0.95
2022-09-25T11:14:32.686Z,1.30
2022-09-25T11:17:01.962Z,1.65
2022-09-25T11:19:30.313Z,1.80
2022-09-25T11:22:08.114Z,1.80
2022-09-25T11:24:43.622Z,1.02
2022-09-25T11:27:25.448Z,1.10
2022-09-25T11:30:12.510Z,0.90
2022-09-25T11:33:05.846Z,1.42
2022-09-25T11:35:54.418Z,1.45
2022-09-25T11:38:52.806Z,1.40
2022-09-25T11:41:30.250Z,1.10
2022-09-25T11:44:06.509Z,1.17
2022-09-25T11:46:53.880Z,1.23
2022-09-25T11:49:24.421Z,1.52
2022-09-25T11:52:07.845Z,1.90
2022-09-25T11:55:03.473Z,1.05
2022-09-25T11:57:56.200Z,1.42
2022-09-25T12:00:26.572Z,1.33
2022-09-25T12:03:15.269Z,1.60
2022-09-25T12:05:49.232Z,0.90
2022-09-25T12:08:39.708Z,1.10
2022-09-25T12:11:43.213Z,1.38
2022-09-25T12:14:25.608Z,1.02
2022-09-25T12:16:58.168Z,1.00
2022-09-25T12:19:43.875Z,1.30
2022-09-25T12:22:26.663Z,1.33
2022-09-25T12:25:19.775Z,1.00
2022-09-25T12:27:58.364Z,1.50
2022-09-25T12:30:34.694Z,1.52
2022-09-25T12:33:23.628Z,1.15
2022-09-25T12:35:56.885Z,1.27
2022-09-25T12:38:41.281Z,0.98
2022-09-25T12:41:34.070Z,1.20
2022-09-25T12:44:14.708Z,1.00
2022-09-25T12:46:44.625Z,1.38
2022-09-25T12:49:38.709Z,1.02
2022-09-25T12:52:19.581Z,0.98
2022-09-25T12:55:02.335Z,1.08
2022-09-25T12:57:44.115Z,1.45
2022-09-25T13:00:25.748Z,0.88
2022-09-25T13:02:58.032Z,1.20
2022-09-25T13:05:38.284Z,1.02
2022-09-25T13:08:14.787Z,1.02
2022-09-25T13:10:49.297Z,0.90
2022-09-25T13:13:21.013Z,1.02
2022-09-25T13:15:52.323Z,0.80
2022-09-25T13:18:22.132Z,0.60
2022-09-25T13:21:19.575Z,0.85
2022-09-25T13:23:50.207Z,0.70
2022-09-25T13:26:26.768Z,0.73
2022-09-25T13:28:59.898Z,0.90
2022-09-25T13:31:34.806Z,0.68
2022-09-25T13:34:03.830Z,0.90
2022-09-25T13:36:33.083Z,0.80
2022-09-25T13:39:25.539Z,0.93
2022-09-25T13:41:55.422Z,1.13
2022-09-25T13:44:41.999Z,1.30
2022-09-25T13:47:24.480Z,0.95
2022-09-25T13:50:25.157Z,0.88
2022-09-25T13:53:17.414Z,0.65
2022-09-25T13:55:50.624Z,0.60
2022-09-25T13:58:18.462Z,0.88
2022-09-25T14:00:58.749Z,0.75
2022-09-25T14:03:41.667Z,0.75
2022-09-25T14:06:17.789Z,0.80
2022-09-25T14:08:45.648Z,0.80
2022-09-25T14:11:17.673Z,0.88
2022-09-25T14:13:46.637Z,0.70
2022-09-25T14:16:25.939Z,0.80
2022-09-25T14:18:55.237Z,0.70
2022-09-25T14:21:22.733Z,0.70
2022-09-25T14:23:57.779Z,0.90
2022-09-25T14:26:28.950Z,0.65
2022-09-25T14:29:26.084Z,0.95
2022-09-25T14:32:55.706Z,1.00
2022-09-25T14:35:39.253Z,0.77
2022-09-25T14:38:36.790Z,0.70
2022-09-25T14:41:29.727Z,0.82
2022-09-25T14:44:03.679Z,0.90
2022-09-25T14:46:34.208Z,1.30
2022-09-25T14:49:15.978Z,0.80
2022-09-25T14:51:45.040Z,0.75
2022-09-25T14:54:17.495Z,0.70
2022-09-25T14:56:48.978Z,0.70
2022-09-25T14:59:31.493Z,0.70
2022-09-25T15:02:02.722Z,1.15
2022-09-25T15:04:32.589Z,0.73
2022-09-25T15:07:16.169Z,0.93
2022-09-25T15:09:48.179Z,0.90
2022-09-25T15:12:24.537Z,0.73
2022-09-25T15:15:08.385Z,0.70
2022-09-25T15:17:50.925Z,0.90
2022-09-25T15:20:23.805Z,0.80
2022-09-25T15:22:56.059Z,1.23
2022-09-25T15:25:27.348Z,0.90
2022-09-25T15:27:54.635Z,0.90
2022-09-25T15:30:22.095Z,0.80
2022-09-25T15:32:58.339Z,1.10
2022-09-25T15:35:29.481Z,0.88
2022-09-25T15:38:48.938Z,0.88
2022-09-25T15:41:16.294Z,0.80
2022-09-25T15:43:43.915Z,0.80
2022-09-25T15:46:11.200Z,0.70
2022-09-25T15:48:54.999Z,1.00
2022-09-25T15:51:23.583Z,0.57
2022-09-25T15:54:02.275Z,0.95
2022-09-25T15:56:34.025Z,1.08
2022-09-25T15:59:04.348Z,0.85
2022-09-25T16:01:52.412Z,1.05
2022-09-25T16:04:41.543Z,0.93
2022-09-25T16:07:24.239Z,0.93
2022-09-25T16:09:53.795Z,1.20
2022-09-25T16:12:28.945Z,0.80
2022-09-25T16:14:57.263Z,1.00
2022-09-25T16:17:32.860Z,0.70
2022-09-25T16:20:03.400Z,0.60
2022-09-25T16:22:36.462Z,0.70
2022-09-25T16:25:14.987Z,1.00
2022-09-25T16:27:44.068Z,1.17
2022-09-25T16:30:19.357Z,1.30
2022-09-25T16:32:49.215Z,1.45
2022-09-25T16:35:26.426Z,1.30
2022-09-25T16:37:54.561Z,1.38
2022-09-25T16:40:25.786Z,1.40
2022-09-25T16:42:55.489Z,1.58
2022-09-25T16:45:29.582Z,1.33
2022-09-25T16:48:00.241Z,1.50
2022-09-25T16:50:32.070Z,1.60
2022-09-25T16:53:00.524Z,6.53
2022-09-25T16:55:29.451Z,3.13
2022-09-25T16:57:56.932Z,1.90
2022-09-25T17:00:26.931Z,1.90
2022-09-25T17:02:54.794Z,1.95
2022-09-25T17:05:27.752Z,1.83
2022-09-25T17:07:57.533Z,1.67
2022-09-25T17:10:29.189Z,1.70
2022-09-25T17:12:58.930Z,1.75
2022-09-25T17:15:33.861Z,1.85
2022-09-25T17:18:01.916Z,2.08
2022-09-25T17:20:34.099Z,2.00
2022-09-25T17:23:02.132Z,2.28
2022-09-25T17:25:42.035Z,1.88
2022-09-25T17:28:10.203Z,2.08
2022-09-25T17:30:38.742Z,2.40
2022-09-25T17:33:07.026Z,2.35
2022-09-25T17:35:42.289Z,2.85
2022-09-25T17:38:09.918Z,2.20
2022-09-25T17:40:37.277Z,2.42
2022-09-25T17:43:04.668Z,2.67
2022-09-25T17:45:31.989Z,2.58
2022-09-25T17:48:00.794Z,3.95
2022-09-25T17:50:29.332Z,2.90
2022-09-25T17:52:56.477Z,2.90
2022-09-25T17:55:23.846Z,2.90
2022-09-25T17:57:51.956Z,2.85
2022-09-25T18:00:19.161Z,2.40
2022-09-25T18:02:46.528Z,2.72
2022-09-25T18:05:16.518Z,3.50
2022-09-25T18:07:43.969Z,7.82
2022-09-25T18:10:12.911Z,3.72
2022-09-25T18:12:40.344Z,3.42
2022-09-25T18:15:08.205Z,2.97
2022-09-25T18:17:35.446Z,2.45
2022-09-25T18:20:21.437Z,2.75
2022-09-25T18:22:49.004Z,2.80
2022-09-25T18:25:16.184Z,2.53
2022-09-25T18:27:44.004Z,2.67
2022-09-25T18:30:16.829Z,2.78
2022-09-25T18:32:44.312Z,2.15
2022-09-25T18:35:14.110Z,2.00
2022-09-25T18:37:42.510Z,2.10
2022-09-25T18:40:11.464Z,2.10
2022-09-25T18:42:38.779Z,2.38
2022-09-25T18:45:06.873Z,2.70
2022-09-25T18:47:37.075Z,2.08
2022-09-25T18:52:32.152Z,10.88
2022-09-25T18:55:02.420Z,5.57
2022-09-25T18:59:56.779Z,3.83
2022-09-25T19:02:30.234Z,2.78
2022-09-25T19:04:58.093Z,3.85
2022-09-25T19:07:28.487Z,2.95
2022-09-25T19:09:58.131Z,3.10
2022-09-25T19:12:25.589Z,2.88
2022-09-25T19:14:52.802Z,3.15
2022-09-25T19:17:23.037Z,3.00
2022-09-25T19:22:19.344Z,2.88
2022-09-25T19:24:50.732Z,2.80
2022-09-25T19:27:18.558Z,2.60
2022-09-25T19:29:46.049Z,2.45
2022-09-25T19:32:15.489Z,2.80
2022-09-25T19:34:42.797Z,2.63
2022-09-25T19:37:10.704Z,3.00
2022-09-25T19:39:57.022Z,2.78
2022-09-25T19:42:24.554Z,2.85
2022-09-25T19:44:54.025Z,2.63
2022-09-25T19:47:22.307Z,3.08
2022-09-25T19:49:49.441Z,3.55
2022-09-25T19:52:17.086Z,3.28
2022-09-25T19:54:44.422Z,2.40
2022-09-25T19:57:12.066Z,4.43
2022-09-25T19:59:39.195Z,2.67
2022-09-25T20:02:07.699Z,3.10
2022-09-25T20:04:35.751Z,2.67
2022-09-25T20:07:03.113Z,2.92
2022-09-25T20:09:30.400Z,3.35
2022-09-25T20:11:57.977Z,2.47
2022-09-25T20:14:25.574Z,2.22
2022-09-25T20:16:54.109Z,1.98
2022-09-25T20:19:22.158Z,2.00
2022-09-25T20:21:49.753Z,2.10
2022-09-25T20:24:18.080Z,2.15
2022-09-25T20:26:45.420Z,1.95
2022-09-25T20:29:14.981Z,1.90
2022-09-25T20:31:43.756Z,1.90
2022-09-25T20:34:13.707Z,2.00
2022-09-25T20:36:41.118Z,2.10
2022-09-25T20:39:08.629Z,2.10
2022-09-25T20:41:36.414Z,1.83
2022-09-25T20:44:04.475Z,2.42
2022-09-25T20:46:32.658Z,2.15
2022-09-25T20:49:00.749Z,2.17
2022-09-25T20:51:30.845Z,2.30
2022-09-25T20:54:00.388Z,2.88
2022-09-25T20:56:29.178Z,2.20
2022-09-25T20:58:57.477Z,2.08
2022-09-25T21:01:28.270Z,2.13
2022-09-25T21:03:59.063Z,3.25
2022-09-25T21:06:29.575Z,2.88
2022-09-25T21:09:00.274Z,2.22
2022-09-25T21:11:30.225Z,1.98
2022-09-25T21:13:59.237Z,2.53
2022-09-25T21:16:27.892Z,2.55
2022-09-25T21:19:04.199Z,2.08
2022-09-25T21:21:33.167Z,2.60
2022-09-25T21:24:02.293Z,2.33
2022-09-25T21:26:31.042Z,1.88
2022-09-25T21:29:01.706Z,2.50
2022-09-25T21:31:35.219Z,1.95
2022-09-25T21:34:02.391Z,1.75
2022-09-25T21:36:30.236Z,1.50
2022-09-25T21:38:59.242Z,1.88
2022-09-25T21:41:28.447Z,1.90
2022-09-25T21:43:56.283Z,1.55
2022-09-25T21:46:24.637Z,1.92
2022-09-25T21:48:56.929Z,2.05
2022-09-25T21:51:27.102Z,1.67
2022-09-25T21:56:24.244Z,2.08
2022-09-25T21:58:53.368Z,2.22
2022-09-25T22:01:34.701Z,1.55
2022-09-25T22:04:03.828Z,1.55
2022-09-25T22:06:38.205Z,1.90
2022-09-25T22:09:11.198Z,2.00
2022-09-25T22:11:39.372Z,2.13
2022-09-25T22:14:08.956Z,1.83
2022-09-25T22:16:41.207Z,1.90
2022-09-25T22:19:18.238Z,1.58
2022-09-25T22:21:47.169Z,1.38
2022-09-25T22:24:14.922Z,1.67
2022-09-25T22:26:43.657Z,2.13
2022-09-25T22:29:11.154Z,1.70
2022-09-25T22:31:42.886Z,1.27
2022-09-25T22:34:15.003Z,1.60
2022-09-25T22:36:42.535Z,2.00
2022-09-25T22:39:12.535Z,1.88
2022-09-25T22:41:40.035Z,1.95
2022-09-25T22:44:07.415Z,1.60
2022-09-25T22:46:34.776Z,1.75
2022-09-25T22:49:02.314Z,1.90
2022-09-25T22:51:29.489Z,1.60
2022-09-25T22:53:56.713Z,1.88
2022-09-25T22:56:34.388Z,2.03
2022-09-25T22:59:07.214Z,1.73
2022-09-25T23:01:34.698Z,1.77
2022-09-25T23:04:03.481Z,1.60
2022-09-25T23:06:32.302Z,1.77
2022-09-25T23:09:02.094Z,1.63
2022-09-25T23:11:29.619Z,1.92
2022-09-25T23:13:59.413Z,1.98
2022-09-25T23:16:27.219Z,2.08
2022-09-25T23:18:58.135Z,1.70
2022-09-25T23:21:26.462Z,1.95
2022-09-25T23:23:58.117Z,1.50
2022-09-25T23:26:25.594Z,1.60
2022-09-25T23:28:53.305Z,1.73
2022-09-25T23:31:21.656Z,2.20
2022-09-25T23:33:49.463Z,2.08
2022-09-25T23:36:23.256Z,1.98
2022-09-25T23:38:51.717Z,1.90
2022-09-25T23:41:21.874Z,1.73
2022-09-25T23:46:18.678Z,1.95
2022-09-25T23:48:46.569Z,1.63
2022-09-25T23:51:15.322Z,2.28
2022-09-25T23:53:43.258Z,1.88
2022-09-25T23:56:19.690Z,1.73
2022-09-25T23:58:47.620Z,1.65
